sensor_id;sensor_type;location;lat;lon;timestamp;P1;durP1;ratioP1;P2;durP2;ratioP2
19547;SDS011;9919;58.014;11.826;2023-05-07T00:01:16;0.80;;;0.65;;
19547;SDS011;9919;58.014;11.826;2023-05-07T00:03:17;0.65;;;0.65;;
19547;SDS011;9919;58.014;11.826;2023-05-07T00:05:19;0.82;;;0.82;;
19547;SDS011;9919;58.014;11.826;2023-05-07T00:07:20;0.65;;;0.65;;
19547;SDS011;9919;58.014;11.826;2023-05-07T00:09:22;0.75;;;0.75;;
19547;SDS011;9919;58.014;11.826;2023-05-07T00:11:23;0.60;;;0.60;;
19547;SDS011;9919;58.014;11.826;2023-05-07T00:13:25;3.58;;;0.80;;
19547;SDS011;9919;58.014;11.826;2023-05-07T00:15:30;1.00;;;1.00;;
19547;SDS011;9919;58.014;11.826;2023-05-07T00:17:32;1.95;;;0.85;;
19547;SDS011;9919;58.014;11.826;2023-05-07T00:19:34;1.55;;;1.00;;
19547;SDS011;9919;58.014;11.826;2023-05-07T00:21:35;0.80;;;0.60;;
19547;SDS011;9919;58.014;11.826;2023-05-07T00:23:38;0.75;;;0.75;;
19547;SDS011;9919;58.014;11.826;2023-05-07T00:25:39;1.60;;;0.88;;
19547;SDS011;9919;58.014;11.826;2023-05-07T00:27:41;0.70;;;0.70;;
19547;SDS011;9919;58.014;11.826;2023-05-07T00:29:43;0.70;;;0.70;;
19547;SDS011;9919;58.014;11.826;2023-05-07T00:31:44;0.90;;;0.63;;
19547;SDS011;9919;58.014;11.826;2023-05-07T00:33:46;0.60;;;0.60;;
19547;SDS011;9919;58.014;11.826;2023-05-07T00:35:48;0.73;;;0.70;;
19547;SDS011;9919;58.014;11.826;2023-05-07T00:37:49;1.75;;;1.02;;
19547;SDS011;9919;58.014;11.826;2023-05-07T00:39:50;0.75;;;0.75;;
19547;SDS011;9919;58.014;11.826;2023-05-07T00:41:52;1.85;;;0.70;;
19547;SDS011;9919;58.014;11.826;2023-05-07T00:43:53;0.50;;;0.50;;
19547;SDS011;9919;58.014;11.826;2023-05-07T00:45:55;0.70;;;0.70;;
19547;SDS011;9919;58.014;11.826;2023-05-07T00:47:58;0.47;;;0.47;;
19547;SDS011;9919;58.014;11.826;2023-05-07T00:50:01;0.80;;;0.80;;
19547;SDS011;9919;58.014;11.826;2023-05-07T00:52:02;0.80;;;0.75;;
19547;SDS011;9919;58.014;11.826;2023-05-07T00:54:06;0.60;;;0.60;;
19547;SDS011;9919;58.014;11.826;2023-05-07T00:56:08;0.85;;;0.85;;
19547;SDS011;9919;58.014;11.826;2023-05-07T00:58:10;0.88;;;0.88;;
19547;SDS011;9919;58.014;11.826;2023-05-07T01:00:12;1.88;;;0.80;;
19547;SDS011;9919;58.014;11.826;2023-05-07T01:02:13;0.93;;;0.90;;
19547;SDS011;9919;58.014;11.826;2023-05-07T01:04:15;0.75;;;0.75;;
19547;SDS011;9919;58.014;11.826;2023-05-07T01:06:16;0.93;;;0.85;;
19547;SDS011;9919;58.014;11.826;2023-05-07T01:08:18;1.00;;;0.90;;
19547;SDS011;9919;58.014;11.826;2023-05-07T01:10:19;0.57;;;0.57;;
19547;SDS011;9919;58.014;11.826;2023-05-07T01:12:21;0.70;;;0.70;;
19547;SDS011;9919;58.014;11.826;2023-05-07T01:14:23;0.80;;;0.80;;
19547;SDS011;9919;58.014;11.826;2023-05-07T01:16:25;0.90;;;0.90;;
19547;SDS011;9919;58.014;11.826;2023-05-07T01:18:27;0.70;;;0.70;;
19547;SDS011;9919;58.014;11.826;2023-05-07T01:20:30;1.02;;;0.90;;
19547;SDS011;9919;58.014;11.826;2023-05-07T01:22:34;0.63;;;0.63;;
19547;SDS011;9919;58.014;11.826;2023-05-07T01:24:37;0.63;;;0.63;;
19547;SDS011;9919;58.014;11.826;2023-05-07T01:26:40;1.00;;;0.98;;
19547;SDS011;9919;58.014;11.826;2023-05-07T01:28:42;0.50;;;0.50;;
19547;SDS011;9919;58.014;11.826;2023-05-07T01:30:46;0.93;;;0.93;;
19547;SDS011;9919;58.014;11.826;2023-05-07T01:33:08;0.70;;;0.70;;
19547;SDS011;9919;58.014;11.826;2023-05-07T01:35:12;0.60;;;0.60;;
19547;SDS011;9919;58.014;11.826;2023-05-07T01:37:20;0.90;;;0.90;;
19547;SDS011;9919;58.014;11.826;2023-05-07T01:39:23;1.17;;;0.75;;
19547;SDS011;9919;58.014;11.826;2023-05-07T01:41:26;1.60;;;0.98;;
19547;SDS011;9919;58.014;11.826;2023-05-07T01:43:29;0.73;;;0.73;;
19547;SDS011;9919;58.014;11.826;2023-05-07T01:45:31;0.75;;;0.75;;
19547;SDS011;9919;58.014;11.826;2023-05-07T01:47:33;0.95;;;0.95;;
19547;SDS011;9919;58.014;11.826;2023-05-07T01:49:35;0.60;;;0.60;;
19547;SDS011;9919;58.014;11.826;2023-05-07T01:51:37;0.68;;;0.68;;
19547;SDS011;9919;58.014;11.826;2023-05-07T01:53:39;0.68;;;0.68;;
19547;SDS011;9919;58.014;11.826;2023-05-07T01:55:41;1.00;;;0.90;;
19547;SDS011;9919;58.014;11.826;2023-05-07T01:57:43;1.05;;;0.88;;
19547;SDS011;9919;58.014;11.826;2023-05-07T01:59:45;0.75;;;0.75;;
19547;SDS011;9919;58.014;11.826;2023-05-07T02:01:46;0.60;;;0.50;;
19547;SDS011;9919;58.014;11.826;2023-05-07T02:03:49;0.80;;;0.80;;
19547;SDS011;9919;58.014;11.826;2023-05-07T02:05:50;0.60;;;0.60;;
19547;SDS011;9919;58.014;11.826;2023-05-07T02:07:51;1.88;;;0.80;;
19547;SDS011;9919;58.014;11.826;2023-05-07T02:09:53;0.60;;;0.60;;
19547;SDS011;9919;58.014;11.826;2023-05-07T02:11:57;0.75;;;0.75;;
19547;SDS011;9919;58.014;11.826;2023-05-07T02:13:59;1.08;;;0.98;;
19547;SDS011;9919;58.014;11.826;2023-05-07T02:16:01;0.68;;;0.68;;
19547;SDS011;9919;58.014;11.826;2023-05-07T02:18:03;0.80;;;0.80;;
19547;SDS011;9919;58.014;11.826;2023-05-07T02:20:07;1.67;;;0.85;;
19547;SDS011;9919;58.014;11.826;2023-05-07T02:22:13;0.73;;;0.73;;
19547;SDS011;9919;58.014;11.826;2023-05-07T02:24:15;1.85;;;0.82;;
19547;SDS011;9919;58.014;11.826;2023-05-07T02:26:18;0.80;;;0.80;;
19547;SDS011;9919;58.014;11.826;2023-05-07T02:28:19;0.70;;;0.63;;
19547;SDS011;9919;58.014;11.826;2023-05-07T02:30:21;0.70;;;0.70;;
19547;SDS011;9919;58.014;11.826;2023-05-07T02:32:22;0.70;;;0.70;;
19547;SDS011;9919;58.014;11.826;2023-05-07T02:34:26;0.60;;;0.60;;
19547;SDS011;9919;58.014;11.826;2023-05-07T02:36:27;0.65;;;0.65;;
19547;SDS011;9919;58.014;11.826;2023-05-07T02:38:29;0.82;;;0.82;;
19547;SDS011;9919;58.014;11.826;2023-05-07T02:40:30;2.50;;;0.70;;
19547;SDS011;9919;58.014;11.826;2023-05-07T02:42:33;0.52;;;0.52;;
19547;SDS011;9919;58.014;11.826;2023-05-07T02:44:35;0.80;;;0.73;;
19547;SDS011;9919;58.014;11.826;2023-05-07T02:46:36;0.50;;;0.50;;
19547;SDS011;9919;58.014;11.826;2023-05-07T02:48:37;0.57;;;0.57;;
19547;SDS011;9919;58.014;11.826;2023-05-07T02:50:39;0.75;;;0.75;;
19547;SDS011;9919;58.014;11.826;2023-05-07T02:52:41;0.50;;;0.50;;
19547;SDS011;9919;58.014;11.826;2023-05-07T02:54:42;0.63;;;0.63;;
19547;SDS011;9919;58.014;11.826;2023-05-07T02:56:43;0.93;;;0.90;;
19547;SDS011;9919;58.014;11.826;2023-05-07T02:58:45;0.60;;;0.60;;
19547;SDS011;9919;58.014;11.826;2023-05-07T03:00:48;1.27;;;0.80;;
19547;SDS011;9919;58.014;11.826;2023-05-07T03:02:49;0.77;;;0.77;;
19547;SDS011;9919;58.014;11.826;2023-05-07T03:04:51;0.55;;;0.55;;
19547;SDS011;9919;58.014;11.826;2023-05-07T03:06:52;1.67;;;0.65;;
19547;SDS011;9919;58.014;11.826;2023-05-07T03:08:54;0.60;;;0.60;;
19547;SDS011;9919;58.014;11.826;2023-05-07T03:10:56;0.70;;;0.70;;
19547;SDS011;9919;58.014;11.826;2023-05-07T03:12:57;0.73;;;0.73;;
19547;SDS011;9919;58.014;11.826;2023-05-07T03:14:58;0.73;;;0.73;;
19547;SDS011;9919;58.014;11.826;2023-05-07T03:17:00;0.77;;;0.77;;
19547;SDS011;9919;58.014;11.826;2023-05-07T03:19:02;0.90;;;0.88;;
19547;SDS011;9919;58.014;11.826;2023-05-07T03:21:03;0.60;;;0.47;;
19547;SDS011;9919;58.014;11.826;2023-05-07T03:23:05;0.65;;;0.65;;
19547;SDS011;9919;58.014;11.826;2023-05-07T03:25:08;0.50;;;0.50;;
19547;SDS011;9919;58.014;11.826;2023-05-07T03:27:11;0.68;;;0.68;;
19547;SDS011;9919;58.014;11.826;2023-05-07T03:29:12;0.60;;;0.60;;
19547;SDS011;9919;58.014;11.826;2023-05-07T03:31:13;1.17;;;0.90;;
19547;SDS011;9919;58.014;11.826;2023-05-07T03:33:15;1.77;;;0.75;;
19547;SDS011;9919;58.014;11.826;2023-05-07T03:35:18;0.95;;;0.70;;
19547;SDS011;9919;58.014;11.826;2023-05-07T03:37:19;0.85;;;0.60;;
19547;SDS011;9919;58.014;11.826;2023-05-07T03:39:21;0.80;;;0.80;;
19547;SDS011;9919;58.014;11.826;2023-05-07T03:41:23;0.60;;;0.60;;
19547;SDS011;9919;58.014;11.826;2023-05-07T03:43:26;0.57;;;0.57;;
19547;SDS011;9919;58.014;11.826;2023-05-07T03:45:27;0.80;;;0.70;;
19547;SDS011;9919;58.014;11.826;2023-05-07T03:47:28;0.77;;;0.77;;
19547;SDS011;9919;58.014;11.826;2023-05-07T03:49:30;0.88;;;0.80;;
19547;SDS011;9919;58.014;11.826;2023-05-07T03:51:31;1.00;;;0.70;;
19547;SDS011;9919;58.014;11.826;2023-05-07T03:53:33;0.60;;;0.60;;
19547;SDS011;9919;58.014;11.826;2023-05-07T03:55:34;0.50;;;0.50;;
19547;SDS011;9919;58.014;11.826;2023-05-07T03:57:35;0.65;;;0.65;;
19547;SDS011;9919;58.014;11.826;2023-05-07T03:59:37;0.57;;;0.57;;
19547;SDS011;9919;58.014;11.826;2023-05-07T04:01:39;0.80;;;0.80;;
19547;SDS011;9919;58.014;11.826;2023-05-07T04:03:41;0.65;;;0.60;;
19547;SDS011;9919;58.014;11.826;2023-05-07T04:05:43;0.50;;;0.50;;
19547;SDS011;9919;58.014;11.826;2023-05-07T04:07:44;0.70;;;0.70;;
19547;SDS011;9919;58.014;11.826;2023-05-07T04:09:46;0.73;;;0.73;;
19547;SDS011;9919;58.014;11.826;2023-05-07T04:11:47;0.88;;;0.88;;
19547;SDS011;9919;58.014;11.826;2023-05-07T04:13:49;0.70;;;0.70;;
19547;SDS011;9919;58.014;11.826;2023-05-07T04:15:52;0.60;;;0.60;;
19547;SDS011;9919;58.014;11.826;2023-05-07T04:17:55;1.85;;;0.60;;
19547;SDS011;9919;58.014;11.826;2023-05-07T04:19:56;0.68;;;0.68;;
19547;SDS011;9919;58.014;11.826;2023-05-07T04:21:58;0.80;;;0.80;;
19547;SDS011;9919;58.014;11.826;2023-05-07T04:23:59;0.57;;;0.57;;
19547;SDS011;9919;58.014;11.826;2023-05-07T04:26:00;2.13;;;0.88;;
19547;SDS011;9919;58.014;11.826;2023-05-07T04:28:03;0.40;;;0.40;;
19547;SDS011;9919;58.014;11.826;2023-05-07T04:30:05;0.40;;;0.40;;
19547;SDS011;9919;58.014;11.826;2023-05-07T04:32:06;0.70;;;0.70;;
19547;SDS011;9919;58.014;11.826;2023-05-07T04:34:09;0.73;;;0.60;;
19547;SDS011;9919;58.014;11.826;2023-05-07T04:36:11;0.50;;;0.50;;
19547;SDS011;9919;58.014;11.826;2023-05-07T04:38:13;0.80;;;0.80;;
19547;SDS011;9919;58.014;11.826;2023-05-07T04:40:14;0.50;;;0.50;;
19547;SDS011;9919;58.014;11.826;2023-05-07T04:42:16;0.65;;;0.65;;
19547;SDS011;9919;58.014;11.826;2023-05-07T04:44:18;0.80;;;0.80;;
19547;SDS011;9919;58.014;11.826;2023-05-07T04:46:20;0.60;;;0.60;;
19547;SDS011;9919;58.014;11.826;2023-05-07T04:48:21;0.50;;;0.50;;
19547;SDS011;9919;58.014;11.826;2023-05-07T04:50:22;0.60;;;0.60;;
19547;SDS011;9919;58.014;11.826;2023-05-07T04:52:25;0.40;;;0.40;;
19547;SDS011;9919;58.014;11.826;2023-05-07T04:54:26;0.68;;;0.60;;
19547;SDS011;9919;58.014;11.826;2023-05-07T04:56:28;0.77;;;0.77;;
19547;SDS011;9919;58.014;11.826;2023-05-07T04:58:32;1.95;;;0.60;;
19547;SDS011;9919;58.014;11.826;2023-05-07T05:00:33;0.80;;;0.80;;
19547;SDS011;9919;58.014;11.826;2023-05-07T05:02:35;0.68;;;0.68;;
19547;SDS011;9919;58.014;11.826;2023-05-07T05:04:36;0.60;;;0.60;;
19547;SDS011;9919;58.014;11.826;2023-05-07T05:06:38;0.60;;;0.60;;
19547;SDS011;9919;58.014;11.826;2023-05-07T05:08:39;1.10;;;0.80;;
19547;SDS011;9919;58.014;11.826;2023-05-07T05:10:41;0.60;;;0.60;;
19547;SDS011;9919;58.014;11.826;2023-05-07T05:12:43;0.90;;;0.90;;
19547;SDS011;9919;58.014;11.826;2023-05-07T05:14:44;0.82;;;0.70;;
19547;SDS011;9919;58.014;11.826;2023-05-07T05:16:46;0.55;;;0.55;;
19547;SDS011;9919;58.014;11.826;2023-05-07T05:18:48;0.70;;;0.70;;
19547;SDS011;9919;58.014;11.826;2023-05-07T05:20:51;0.50;;;0.50;;
19547;SDS011;9919;58.014;11.826;2023-05-07T05:22:52;0.60;;;0.60;;
19547;SDS011;9919;58.014;11.826;2023-05-07T05:24:54;0.55;;;0.55;;
19547;SDS011;9919;58.014;11.826;2023-05-07T05:26:55;0.52;;;0.50;;
19547;SDS011;9919;58.014;11.826;2023-05-07T05:28:57;4.20;;;0.82;;
19547;SDS011;9919;58.014;11.826;2023-05-07T05:30:58;0.77;;;0.70;;
19547;SDS011;9919;58.014;11.826;2023-05-07T05:33:00;1.80;;;0.60;;
19547;SDS011;9919;58.014;11.826;2023-05-07T05:35:01;0.70;;;0.70;;
19547;SDS011;9919;58.014;11.826;2023-05-07T05:37:03;1.52;;;0.80;;
19547;SDS011;9919;58.014;11.826;2023-05-07T05:39:04;0.60;;;0.60;;
19547;SDS011;9919;58.014;11.826;2023-05-07T05:41:06;0.75;;;0.63;;
19547;SDS011;9919;58.014;11.826;2023-05-07T05:43:07;0.88;;;0.75;;
19547;SDS011;9919;58.014;11.826;2023-05-07T05:45:10;2.00;;;0.80;;
19547;SDS011;9919;58.014;11.826;2023-05-07T05:47:11;1.90;;;0.82;;
19547;SDS011;9919;58.014;11.826;2023-05-07T05:49:13;0.50;;;0.50;;
19547;SDS011;9919;58.014;11.826;2023-05-07T05:51:15;0.50;;;0.50;;
19547;SDS011;9919;58.014;11.826;2023-05-07T05:53:17;0.80;;;0.77;;
19547;SDS011;9919;58.014;11.826;2023-05-07T05:55:20;0.52;;;0.52;;
19547;SDS011;9919;58.014;11.826;2023-05-07T05:57:22;2.55;;;0.57;;
19547;SDS011;9919;58.014;11.826;2023-05-07T05:59:23;0.60;;;0.60;;
19547;SDS011;9919;58.014;11.826;2023-05-07T06:01:24;0.50;;;0.50;;
19547;SDS011;9919;58.014;11.826;2023-05-07T06:03:26;1.48;;;0.45;;
19547;SDS011;9919;58.014;11.826;2023-05-07T06:05:27;2.03;;;0.60;;
19547;SDS011;9919;58.014;11.826;2023-05-07T06:07:29;0.70;;;0.65;;
19547;SDS011;9919;58.014;11.826;2023-05-07T06:09:30;0.85;;;0.85;;
19547;SDS011;9919;58.014;11.826;2023-05-07T06:11:32;2.78;;;0.80;;
19547;SDS011;9919;58.014;11.826;2023-05-07T06:13:33;0.55;;;0.55;;
19547;SDS011;9919;58.014;11.826;2023-05-07T06:15:34;0.60;;;0.60;;
19547;SDS011;9919;58.014;11.826;2023-05-07T06:17:36;1.30;;;0.98;;
19547;SDS011;9919;58.014;11.826;2023-05-07T06:19:38;0.45;;;0.45;;
19547;SDS011;9919;58.014;11.826;2023-05-07T06:21:40;1.42;;;0.38;;
19547;SDS011;9919;58.014;11.826;2023-05-07T06:23:41;0.80;;;0.80;;
19547;SDS011;9919;58.014;11.826;2023-05-07T06:25:49;1.45;;;0.52;;
19547;SDS011;9919;58.014;11.826;2023-05-07T06:27:51;4.40;;;0.90;;
19547;SDS011;9919;58.014;11.826;2023-05-07T06:29:53;1.67;;;0.80;;
19547;SDS011;9919;58.014;11.826;2023-05-07T06:31:55;0.98;;;0.98;;
19547;SDS011;9919;58.014;11.826;2023-05-07T06:33:56;0.80;;;0.80;;
19547;SDS011;9919;58.014;11.826;2023-05-07T06:35:59;0.80;;;0.80;;
19547;SDS011;9919;58.014;11.826;2023-05-07T06:38:00;1.23;;;0.70;;
19547;SDS011;9919;58.014;11.826;2023-05-07T06:40:01;0.70;;;0.70;;
19547;SDS011;9919;58.014;11.826;2023-05-07T06:42:03;0.60;;;0.60;;
19547;SDS011;9919;58.014;11.826;2023-05-07T06:44:06;1.13;;;0.63;;
19547;SDS011;9919;58.014;11.826;2023-05-07T06:46:07;0.55;;;0.55;;
19547;SDS011;9919;58.014;11.826;2023-05-07T06:48:08;0.65;;;0.60;;
19547;SDS011;9919;58.014;11.826;2023-05-07T06:50:10;1.05;;;0.60;;
19547;SDS011;9919;58.014;11.826;2023-05-07T06:52:11;0.65;;;0.55;;
19547;SDS011;9919;58.014;11.826;2023-05-07T06:54:13;0.57;;;0.57;;
19547;SDS011;9919;58.014;11.826;2023-05-07T06:56:14;0.55;;;0.47;;
19547;SDS011;9919;58.014;11.826;2023-05-07T06:58:15;0.63;;;0.60;;
19547;SDS011;9919;58.014;11.826;2023-05-07T07:00:17;0.77;;;0.77;;
19547;SDS011;9919;58.014;11.826;2023-05-07T07:02:19;1.15;;;0.63;;
19547;SDS011;9919;58.014;11.826;2023-05-07T07:04:20;0.40;;;0.40;;
19547;SDS011;9919;58.014;11.826;2023-05-07T07:06:24;2.60;;;1.10;;
19547;SDS011;9919;58.014;11.826;2023-05-07T07:08:25;2.17;;;0.70;;
19547;SDS011;9919;58.014;11.826;2023-05-07T07:10:27;0.52;;;0.52;;
19547;SDS011;9919;58.014;11.826;2023-05-07T07:12:28;0.60;;;0.60;;
19547;SDS011;9919;58.014;11.826;2023-05-07T07:14:29;0.43;;;0.43;;
19547;SDS011;9919;58.014;11.826;2023-05-07T07:16:31;0.55;;;0.55;;
19547;SDS011;9919;58.014;11.826;2023-05-07T07:18:32;0.80;;;0.80;;
19547;SDS011;9919;58.014;11.826;2023-05-07T07:20:33;1.80;;;0.55;;
19547;SDS011;9919;58.014;11.826;2023-05-07T07:22:35;0.82;;;0.82;;
19547;SDS011;9919;58.014;11.826;2023-05-07T07:24:36;0.80;;;0.80;;
19547;SDS011;9919;58.014;11.826;2023-05-07T07:26:38;0.52;;;0.52;;
19547;SDS011;9919;58.014;11.826;2023-05-07T07:28:43;0.85;;;0.73;;
19547;SDS011;9919;58.014;11.826;2023-05-07T07:30:48;0.98;;;0.60;;
19547;SDS011;9919;58.014;11.826;2023-05-07T07:32:49;0.80;;;0.63;;
19547;SDS011;9919;58.014;11.826;2023-05-07T07:34:52;0.60;;;0.60;;
19547;SDS011;9919;58.014;11.826;2023-05-07T07:36:53;0.40;;;0.40;;
19547;SDS011;9919;58.014;11.826;2023-05-07T07:38:55;0.50;;;0.50;;
19547;SDS011;9919;58.014;11.826;2023-05-07T07:40:57;0.50;;;0.50;;
19547;SDS011;9919;58.014;11.826;2023-05-07T07:42:58;1.05;;;0.95;;
19547;SDS011;9919;58.014;11.826;2023-05-07T07:45:01;0.70;;;0.70;;
19547;SDS011;9919;58.014;11.826;2023-05-07T07:47:03;2.00;;;0.60;;
19547;SDS011;9919;58.014;11.826;2023-05-07T07:49:04;0.60;;;0.60;;
19547;SDS011;9919;58.014;11.826;2023-05-07T07:51:06;0.52;;;0.52;;
19547;SDS011;9919;58.014;11.826;2023-05-07T07:53:07;0.40;;;0.40;;
19547;SDS011;9919;58.014;11.826;2023-05-07T07:55:08;0.45;;;0.45;;
19547;SDS011;9919;58.014;11.826;2023-05-07T07:57:10;0.50;;;0.50;;
19547;SDS011;9919;58.014;11.826;2023-05-07T07:59:11;0.80;;;0.80;;
19547;SDS011;9919;58.014;11.826;2023-05-07T08:01:14;0.38;;;0.38;;
19547;SDS011;9919;58.014;11.826;2023-05-07T08:03:17;1.58;;;0.50;;
19547;SDS011;9919;58.014;11.826;2023-05-07T08:05:19;0.80;;;0.80;;
19547;SDS011;9919;58.014;11.826;2023-05-07T08:07:21;0.70;;;0.70;;
19547;SDS011;9919;58.014;11.826;2023-05-07T08:09:22;1.08;;;0.80;;
19547;SDS011;9919;58.014;11.826;2023-05-07T08:11:24;5.47;;;0.93;;
19547;SDS011;9919;58.014;11.826;2023-05-07T08:13:25;2.55;;;1.10;;
19547;SDS011;9919;58.014;11.826;2023-05-07T08:15:27;1.35;;;0.95;;
19547;SDS011;9919;58.014;11.826;2023-05-07T08:17:28;2.50;;;1.00;;
19547;SDS011;9919;58.014;11.826;2023-05-07T08:19:30;7.45;;;1.20;;
19547;SDS011;9919;58.014;11.826;2023-05-07T08:21:32;1.42;;;1.00;;
19547;SDS011;9919;58.014;11.826;2023-05-07T08:23:34;2.92;;;1.10;;
19547;SDS011;9919;58.014;11.826;2023-05-07T08:25:36;0.77;;;0.77;;
19547;SDS011;9919;58.014;11.826;2023-05-07T08:27:37;0.98;;;0.70;;
19547;SDS011;9919;58.014;11.826;2023-05-07T08:29:39;0.70;;;0.70;;
19547;SDS011;9919;58.014;11.826;2023-05-07T08:31:41;1.83;;;0.98;;
19547;SDS011;9919;58.014;11.826;2023-05-07T08:33:42;4.07;;;1.05;;
19547;SDS011;9919;58.014;11.826;2023-05-07T08:35:44;1.05;;;1.05;;
19547;SDS011;9919;58.014;11.826;2023-05-07T08:37:45;2.00;;;1.10;;
19547;SDS011;9919;58.014;11.826;2023-05-07T08:39:47;0.75;;;0.75;;
19547;SDS011;9919;58.014;11.826;2023-05-07T08:41:49;0.60;;;0.60;;
19547;SDS011;9919;58.014;11.826;2023-05-07T08:43:53;6.78;;;1.30;;
19547;SDS011;9919;58.014;11.826;2023-05-07T08:46:02;3.13;;;1.02;;
19547;SDS011;9919;58.014;11.826;2023-05-07T08:48:09;5.68;;;1.38;;
19547;SDS011;9919;58.014;11.826;2023-05-07T08:50:14;0.70;;;0.70;;
19547;SDS011;9919;58.014;11.826;2023-05-07T08:52:15;0.98;;;0.93;;
19547;SDS011;9919;58.014;11.826;2023-05-07T08:54:17;2.25;;;1.05;;
19547;SDS011;9919;58.014;11.826;2023-05-07T08:56:19;0.70;;;0.70;;
19547;SDS011;9919;58.014;11.826;2023-05-07T08:58:21;6.35;;;0.98;;
19547;SDS011;9919;58.014;11.826;2023-05-07T09:00:22;0.95;;;0.95;;
19547;SDS011;9919;58.014;11.826;2023-05-07T09:02:24;1.55;;;0.80;;
19547;SDS011;9919;58.014;11.826;2023-05-07T09:04:25;3.35;;;0.73;;
19547;SDS011;9919;58.014;11.826;2023-05-07T09:06:26;3.20;;;0.77;;
19547;SDS011;9919;58.014;11.826;2023-05-07T09:08:28;3.33;;;1.20;;
19547;SDS011;9919;58.014;11.826;2023-05-07T09:10:31;1.98;;;1.13;;
19547;SDS011;9919;58.014;11.826;2023-05-07T09:12:33;0.73;;;0.55;;
19547;SDS011;9919;58.014;11.826;2023-05-07T09:14:36;1.25;;;0.65;;
19547;SDS011;9919;58.014;11.826;2023-05-07T09:16:38;9.18;;;1.10;;
19547;SDS011;9919;58.014;11.826;2023-05-07T09:18:42;4.22;;;1.00;;
19547;SDS011;9919;58.014;11.826;2023-05-07T09:20:44;3.33;;;1.10;;
19547;SDS011;9919;58.014;11.826;2023-05-07T09:22:46;1.70;;;0.68;;
19547;SDS011;9919;58.014;11.826;2023-05-07T09:24:49;3.05;;;0.93;;
19547;SDS011;9919;58.014;11.826;2023-05-07T09:26:52;6.60;;;1.00;;
19547;SDS011;9919;58.014;11.826;2023-05-07T09:28:53;0.55;;;0.52;;
19547;SDS011;9919;58.014;11.826;2023-05-07T09:30:55;0.55;;;0.55;;
19547;SDS011;9919;58.014;11.826;2023-05-07T09:32:57;1.30;;;0.95;;
19547;SDS011;9919;58.014;11.826;2023-05-07T09:34:59;2.72;;;0.90;;
19547;SDS011;9919;58.014;11.826;2023-05-07T09:37:04;3.65;;;0.70;;
19547;SDS011;9919;58.014;11.826;2023-05-07T09:39:06;2.90;;;1.02;;
19547;SDS011;9919;58.014;11.826;2023-05-07T09:41:08;0.93;;;0.70;;
19547;SDS011;9919;58.014;11.826;2023-05-07T09:43:12;45.08;;;11.93;;
19547;SDS011;9919;58.014;11.826;2023-05-07T09:45:14;17.23;;;7.47;;
19547;SDS011;9919;58.014;11.826;2023-05-07T09:47:19;13.90;;;5.28;;
19547;SDS011;9919;58.014;11.826;2023-05-07T09:49:22;15.10;;;4.82;;
19547;SDS011;9919;58.014;11.826;2023-05-07T09:51:25;12.10;;;4.30;;
19547;SDS011;9919;58.014;11.826;2023-05-07T09:53:34;9.30;;;3.95;;
19547;SDS011;9919;58.014;11.826;2023-05-07T09:55:35;10.45;;;4.10;;
19547;SDS011;9919;58.014;11.826;2023-05-07T09:57:37;9.55;;;4.25;;
19547;SDS011;9919;58.014;11.826;2023-05-07T09:59:39;10.35;;;4.68;;
19547;SDS011;9919;58.014;11.826;2023-05-07T10:01:43;14.05;;;5.20;;
19547;SDS011;9919;58.014;11.826;2023-05-07T10:03:45;9.25;;;4.50;;
19547;SDS011;9919;58.014;11.826;2023-05-07T10:05:47;11.82;;;5.05;;
19547;SDS011;9919;58.014;11.826;2023-05-07T10:07:50;12.75;;;4.88;;
19547;SDS011;9919;58.014;11.826;2023-05-07T10:09:51;11.63;;;4.40;;
19547;SDS011;9919;58.014;11.826;2023-05-07T10:11:53;12.38;;;6.05;;
19547;SDS011;9919;58.014;11.826;2023-05-07T10:13:55;15.15;;;4.85;;
19547;SDS011;9919;58.014;11.826;2023-05-07T10:15:57;13.50;;;4.75;;
19547;SDS011;9919;58.014;11.826;2023-05-07T10:17:58;10.70;;;4.40;;
19547;SDS011;9919;58.014;11.826;2023-05-07T10:19:59;12.77;;;4.13;;
19547;SDS011;9919;58.014;11.826;2023-05-07T10:22:02;13.20;;;4.53;;
19547;SDS011;9919;58.014;11.826;2023-05-07T10:24:09;8.55;;;4.22;;
19547;SDS011;9919;58.014;11.826;2023-05-07T10:26:27;10.48;;;4.22;;
19547;SDS011;9919;58.014;11.826;2023-05-07T10:28:31;9.60;;;4.10;;
19547;SDS011;9919;58.014;11.826;2023-05-07T10:32:56;10.70;;;4.50;;
19547;SDS011;9919;58.014;11.826;2023-05-07T10:35:14;14.50;;;5.00;;
19547;SDS011;9919;58.014;11.826;2023-05-07T10:37:20;7.30;;;3.70;;
19547;SDS011;9919;58.014;11.826;2023-05-07T10:39:22;9.45;;;3.40;;
19547;SDS011;9919;58.014;11.826;2023-05-07T10:41:24;7.53;;;3.67;;
19547;SDS011;9919;58.014;11.826;2023-05-07T10:43:25;9.38;;;3.30;;
19547;SDS011;9919;58.014;11.826;2023-05-07T10:45:42;8.23;;;3.20;;
19547;SDS011;9919;58.014;11.826;2023-05-07T10:52:15;7.57;;;3.20;;
19547;SDS011;9919;58.014;11.826;2023-05-07T10:54:18;11.32;;;3.25;;
19547;SDS011;9919;58.014;11.826;2023-05-07T11:05:20;5.43;;;2.65;;
19547;SDS011;9919;58.014;11.826;2023-05-07T11:07:26;3.63;;;2.58;;
19547;SDS011;9919;58.014;11.826;2023-05-07T11:11:51;3.40;;;2.20;;
19547;SDS011;9919;58.014;11.826;2023-05-07T11:13:52;5.43;;;2.65;;
19547;SDS011;9919;58.014;11.826;2023-05-07T11:15:54;5.60;;;2.30;;
19547;SDS011;9919;58.014;11.826;2023-05-07T11:17:56;5.22;;;2.40;;
19547;SDS011;9919;58.014;11.826;2023-05-07T11:19:58;5.53;;;2.60;;
19547;SDS011;9919;58.014;11.826;2023-05-07T11:22:00;4.35;;;2.17;;
19547;SDS011;9919;58.014;11.826;2023-05-07T11:24:02;4.57;;;2.15;;
19547;SDS011;9919;58.014;11.826;2023-05-07T11:26:05;6.60;;;2.67;;
19547;SDS011;9919;58.014;11.826;2023-05-07T11:28:08;5.35;;;2.08;;
19547;SDS011;9919;58.014;11.826;2023-05-07T11:30:10;5.43;;;2.33;;
19547;SDS011;9919;58.014;11.826;2023-05-07T11:34:26;5.72;;;2.55;;
19547;SDS011;9919;58.014;11.826;2023-05-07T11:36:30;3.28;;;2.25;;
19547;SDS011;9919;58.014;11.826;2023-05-07T11:38:36;4.57;;;2.30;;
19547;SDS011;9919;58.014;11.826;2023-05-07T11:40:54;5.28;;;1.83;;
19547;SDS011;9919;58.014;11.826;2023-05-07T11:42:56;5.10;;;2.63;;
19547;SDS011;9919;58.014;11.826;2023-05-07T11:44:58;6.53;;;2.50;;
19547;SDS011;9919;58.014;11.826;2023-05-07T11:46:59;3.05;;;2.20;;
19547;SDS011;9919;58.014;11.826;2023-05-07T11:49:02;3.55;;;2.20;;
19547;SDS011;9919;58.014;11.826;2023-05-07T11:51:04;3.25;;;2.15;;
19547;SDS011;9919;58.014;11.826;2023-05-07T11:53:09;7.05;;;2.17;;
19547;SDS011;9919;58.014;11.826;2023-05-07T11:55:10;6.72;;;2.15;;
19547;SDS011;9919;58.014;11.826;2023-05-07T11:57:15;5.10;;;2.40;;
19547;SDS011;9919;58.014;11.826;2023-05-07T11:59:17;5.05;;;2.05;;
19547;SDS011;9919;58.014;11.826;2023-05-07T12:01:19;3.20;;;2.03;;
19547;SDS011;9919;58.014;11.826;2023-05-07T12:03:20;4.40;;;2.20;;
19547;SDS011;9919;58.014;11.826;2023-05-07T12:05:22;3.83;;;1.92;;
19547;SDS011;9919;58.014;11.826;2023-05-07T12:07:24;3.55;;;1.85;;
19547;SDS011;9919;58.014;11.826;2023-05-07T12:09:26;3.28;;;1.92;;
19547;SDS011;9919;58.014;11.826;2023-05-07T12:11:28;3.03;;;2.05;;
19547;SDS011;9919;58.014;11.826;2023-05-07T12:13:30;3.63;;;1.95;;
19547;SDS011;9919;58.014;11.826;2023-05-07T12:15:34;2.75;;;2.30;;
19547;SDS011;9919;58.014;11.826;2023-05-07T12:17:36;3.08;;;2.45;;
19547;SDS011;9919;58.014;11.826;2023-05-07T12:19:38;2.55;;;2.05;;
19547;SDS011;9919;58.014;11.826;2023-05-07T12:21:40;2.00;;;1.67;;
19547;SDS011;9919;58.014;11.826;2023-05-07T12:23:42;2.80;;;1.98;;
19547;SDS011;9919;58.014;11.826;2023-05-07T12:25:44;3.15;;;2.08;;
19547;SDS011;9919;58.014;11.826;2023-05-07T12:27:52;4.90;;;1.42;;
19547;SDS011;9919;58.014;11.826;2023-05-07T12:29:53;6.25;;;2.05;;
19547;SDS011;9919;58.014;11.826;2023-05-07T12:31:55;3.70;;;2.20;;
19547;SDS011;9919;58.014;11.826;2023-05-07T12:33:56;2.60;;;2.08;;
19547;SDS011;9919;58.014;11.826;2023-05-07T12:35:57;3.67;;;1.90;;
19547;SDS011;9919;58.014;11.826;2023-05-07T12:38:02;3.30;;;1.75;;